sensor_id;sensor_type;location;lat;lon;timestamp;P1;durP1;ratioP1;P2;durP2;ratioP2
15102;SDS011;7652;53.584;9.998;2022-08-19T00:01:45;9.40;;;8.40;;
15102;SDS011;7652;53.584;9.998;2022-08-19T00:04:54;11.37;;;10.23;;
15102;SDS011;7652;53.584;9.998;2022-08-19T00:07:57;12.73;;;10.07;;
15102;SDS011;7652;53.584;9.998;2022-08-19T00:11:00;13.77;;;10.87;;
15102;SDS011;7652;53.584;9.998;2022-08-19T00:14:03;13.20;;;10.70;;
15102;SDS011;7652;53.584;9.998;2022-08-19T00:17:09;13.50;;;11.93;;
15102;SDS011;7652;53.584;9.998;2022-08-19T00:20:12;14.17;;;12.10;;
15102;SDS011;7652;53.584;9.998;2022-08-19T00:23:19;13.13;;;11.73;;
15102;SDS011;7652;53.584;9.998;2022-08-19T00:26:22;17.03;;;14.77;;
15102;SDS011;7652;53.584;9.998;2022-08-19T00:29:25;16.13;;;14.43;;
15102;SDS011;7652;53.584;9.998;2022-08-19T00:32:29;16.63;;;14.93;;
15102;SDS011;7652;53.584;9.998;2022-08-19T00:35:34;17.47;;;14.87;;
15102;SDS011;7652;53.584;9.998;2022-08-19T00:38:39;18.60;;;15.27;;
15102;SDS011;7652;53.584;9.998;2022-08-19T00:41:44;17.70;;;13.97;;
15102;SDS011;7652;53.584;9.998;2022-08-19T00:44:49;15.73;;;14.07;;
15102;SDS011;7652;53.584;9.998;2022-08-19T00:47:54;17.27;;;15.37;;
15102;SDS011;7652;53.584;9.998;2022-08-19T00:50:57;17.13;;;14.87;;
15102;SDS011;7652;53.584;9.998;2022-08-19T00:54:00;18.47;;;14.97;;
15102;SDS011;7652;53.584;9.998;2022-08-19T00:57:06;20.83;;;15.20;;
15102;SDS011;7652;53.584;9.998;2022-08-19T01:00:13;18.73;;;15.80;;
15102;SDS011;7652;53.584;9.998;2022-08-19T01:03:21;22.87;;;18.00;;
15102;SDS011;7652;53.584;9.998;2022-08-19T01:06:24;26.97;;;18.13;;
15102;SDS011;7652;53.584;9.998;2022-08-19T01:09:28;20.90;;;17.50;;
15102;SDS011;7652;53.584;9.998;2022-08-19T01:12:31;21.33;;;16.37;;
15102;SDS011;7652;53.584;9.998;2022-08-19T01:15:40;18.70;;;14.50;;
15102;SDS011;7652;53.584;9.998;2022-08-19T01:18:47;20.90;;;15.37;;
15102;SDS011;7652;53.584;9.998;2022-08-19T01:21:52;19.03;;;16.63;;
15102;SDS011;7652;53.584;9.998;2022-08-19T01:25:15;17.90;;;14.80;;
15102;SDS011;7652;53.584;9.998;2022-08-19T01:28:22;15.90;;;14.20;;
15102;SDS011;7652;53.584;9.998;2022-08-19T01:31:37;18.20;;;13.67;;
15102;SDS011;7652;53.584;9.998;2022-08-19T01:34:41;17.17;;;15.37;;
15102;SDS011;7652;53.584;9.998;2022-08-19T01:37:49;16.77;;;14.77;;
15102;SDS011;7652;53.584;9.998;2022-08-19T01:40:55;18.03;;;15.13;;
15102;SDS011;7652;53.584;9.998;2022-08-19T01:43:58;15.80;;;14.20;;
15102;SDS011;7652;53.584;9.998;2022-08-19T01:47:19;15.30;;;12.90;;
15102;SDS011;7652;53.584;9.998;2022-08-19T01:50:22;15.53;;;13.80;;
15102;SDS011;7652;53.584;9.998;2022-08-19T01:53:26;18.50;;;16.07;;
15102;SDS011;7652;53.584;9.998;2022-08-19T01:56:35;16.63;;;14.73;;
15102;SDS011;7652;53.584;9.998;2022-08-19T01:59:40;20.67;;;16.60;;
15102;SDS011;7652;53.584;9.998;2022-08-19T02:02:45;19.47;;;15.80;;
15102;SDS011;7652;53.584;9.998;2022-08-19T02:05:52;20.30;;;15.70;;
15102;SDS011;7652;53.584;9.998;2022-08-19T02:08:57;17.60;;;14.80;;
15102;SDS011;7652;53.584;9.998;2022-08-19T02:12:02;22.40;;;15.60;;
15102;SDS011;7652;53.584;9.998;2022-08-19T02:15:06;25.43;;;16.70;;
15102;SDS011;7652;53.584;9.998;2022-08-19T02:18:10;17.40;;;14.90;;
15102;SDS011;7652;53.584;9.998;2022-08-19T02:21:13;17.87;;;14.27;;
15102;SDS011;7652;53.584;9.998;2022-08-19T02:24:16;18.47;;;14.97;;
15102;SDS011;7652;53.584;9.998;2022-08-19T02:27:21;20.40;;;16.50;;
15102;SDS011;7652;53.584;9.998;2022-08-19T02:30:24;20.17;;;15.03;;
15102;SDS011;7652;53.584;9.998;2022-08-19T02:33:27;23.50;;;17.27;;
15102;SDS011;7652;53.584;9.998;2022-08-19T02:36:31;22.43;;;16.53;;
15102;SDS011;7652;53.584;9.998;2022-08-19T02:39:34;19.67;;;15.03;;
15102;SDS011;7652;53.584;9.998;2022-08-19T02:42:37;22.80;;;16.00;;
15102;SDS011;7652;53.584;9.998;2022-08-19T02:45:42;23.03;;;16.53;;
15102;SDS011;7652;53.584;9.998;2022-08-19T02:48:45;20.57;;;16.17;;
15102;SDS011;7652;53.584;9.998;2022-08-19T02:51:48;21.93;;;16.40;;
15102;SDS011;7652;53.584;9.998;2022-08-19T02:54:51;23.80;;;16.87;;
15102;SDS011;7652;53.584;9.998;2022-08-19T02:57:56;28.03;;;17.97;;
15102;SDS011;7652;53.584;9.998;2022-08-19T03:00:59;21.53;;;16.70;;
15102;SDS011;7652;53.584;9.998;2022-08-19T03:04:03;24.80;;;18.03;;
15102;SDS011;7652;53.584;9.998;2022-08-19T03:07:07;29.13;;;18.70;;
15102;SDS011;7652;53.584;9.998;2022-08-19T03:10:12;29.47;;;18.37;;
15102;SDS011;7652;53.584;9.998;2022-08-19T03:13:17;27.57;;;18.80;;
15102;SDS011;7652;53.584;9.998;2022-08-19T03:16:21;31.93;;;19.20;;
15102;SDS011;7652;53.584;9.998;2022-08-19T03:19:26;27.80;;;17.57;;
15102;SDS011;7652;53.584;9.998;2022-08-19T03:22:29;28.50;;;18.37;;
15102;SDS011;7652;53.584;9.998;2022-08-19T03:25:35;31.03;;;18.63;;
15102;SDS011;7652;53.584;9.998;2022-08-19T03:28:41;24.53;;;17.40;;
15102;SDS011;7652;53.584;9.998;2022-08-19T03:31:59;25.10;;;16.50;;
15102;SDS011;7652;53.584;9.998;2022-08-19T03:35:05;29.20;;;17.80;;
15102;SDS011;7652;53.584;9.998;2022-08-19T03:38:08;26.43;;;17.53;;
15102;SDS011;7652;53.584;9.998;2022-08-19T03:41:13;28.27;;;17.50;;
15102;SDS011;7652;53.584;9.998;2022-08-19T03:44:20;27.77;;;17.07;;
15102;SDS011;7652;53.584;9.998;2022-08-19T03:47:23;28.50;;;18.13;;
15102;SDS011;7652;53.584;9.998;2022-08-19T03:50:26;31.80;;;19.57;;
15102;SDS011;7652;53.584;9.998;2022-08-19T03:53:30;26.10;;;17.40;;
15102;SDS011;7652;53.584;9.998;2022-08-19T03:56:34;25.80;;;17.53;;
15102;SDS011;7652;53.584;9.998;2022-08-19T03:59:40;27.10;;;17.03;;
15102;SDS011;7652;53.584;9.998;2022-08-19T04:02:43;27.17;;;17.33;;
15102;SDS011;7652;53.584;9.998;2022-08-19T04:06:08;24.07;;;16.63;;
15102;SDS011;7652;53.584;9.998;2022-08-19T04:09:13;20.10;;;14.70;;
15102;SDS011;7652;53.584;9.998;2022-08-19T04:12:16;21.33;;;14.93;;
15102;SDS011;7652;53.584;9.998;2022-08-19T04:15:22;24.03;;;15.87;;
15102;SDS011;7652;53.584;9.998;2022-08-19T04:18:25;29.93;;;18.00;;
15102;SDS011;7652;53.584;9.998;2022-08-19T04:21:36;30.83;;;18.03;;
15102;SDS011;7652;53.584;9.998;2022-08-19T04:24:39;26.57;;;16.63;;
15102;SDS011;7652;53.584;9.998;2022-08-19T04:27:42;24.80;;;16.33;;
15102;SDS011;7652;53.584;9.998;2022-08-19T04:30:49;26.37;;;15.93;;
15102;SDS011;7652;53.584;9.998;2022-08-19T04:33:54;29.20;;;18.63;;
15102;SDS011;7652;53.584;9.998;2022-08-19T04:36:58;31.23;;;20.57;;
15102;SDS011;7652;53.584;9.998;2022-08-19T04:40:04;26.20;;;18.17;;
15102;SDS011;7652;53.584;9.998;2022-08-19T04:43:25;30.47;;;19.97;;
15102;SDS011;7652;53.584;9.998;2022-08-19T04:46:30;41.87;;;22.43;;
15102;SDS011;7652;53.584;9.998;2022-08-19T04:49:40;33.90;;;21.53;;
15102;SDS011;7652;53.584;9.998;2022-08-19T04:52:43;33.73;;;21.77;;
15102;SDS011;7652;53.584;9.998;2022-08-19T04:55:46;37.87;;;24.03;;
15102;SDS011;7652;53.584;9.998;2022-08-19T04:58:49;37.37;;;24.03;;
15102;SDS011;7652;53.584;9.998;2022-08-19T05:01:54;51.63;;;29.30;;
15102;SDS011;7652;53.584;9.998;2022-08-19T05:04:57;37.60;;;24.20;;
15102;SDS011;7652;53.584;9.998;2022-08-19T05:08:02;45.17;;;27.07;;
15102;SDS011;7652;53.584;9.998;2022-08-19T05:11:08;36.87;;;25.70;;
15102;SDS011;7652;53.584;9.998;2022-08-19T05:14:14;36.97;;;24.43;;
15102;SDS011;7652;53.584;9.998;2022-08-19T05:17:18;38.13;;;24.40;;
15102;SDS011;7652;53.584;9.998;2022-08-19T05:20:28;37.93;;;24.43;;
15102;SDS011;7652;53.584;9.998;2022-08-19T05:23:49;35.67;;;23.63;;
15102;SDS011;7652;53.584;9.998;2022-08-19T05:26:52;32.47;;;22.50;;
15102;SDS011;7652;53.584;9.998;2022-08-19T05:29:58;31.83;;;22.90;;
15102;SDS011;7652;53.584;9.998;2022-08-19T05:33:02;38.50;;;25.37;;
15102;SDS011;7652;53.584;9.998;2022-08-19T05:36:05;34.73;;;23.00;;
15102;SDS011;7652;53.584;9.998;2022-08-19T05:39:10;33.73;;;24.43;;
15102;SDS011;7652;53.584;9.998;2022-08-19T05:42:15;33.70;;;24.40;;
15102;SDS011;7652;53.584;9.998;2022-08-19T05:45:18;41.10;;;28.23;;
15102;SDS011;7652;53.584;9.998;2022-08-19T05:48:24;41.17;;;27.70;;
15102;SDS011;7652;53.584;9.998;2022-08-19T05:51:27;37.07;;;26.30;;
15102;SDS011;7652;53.584;9.998;2022-08-19T05:54:30;37.73;;;28.67;;
15102;SDS011;7652;53.584;9.998;2022-08-19T05:57:34;31.87;;;26.20;;
15102;SDS011;7652;53.584;9.998;2022-08-19T06:00:37;37.60;;;26.20;;
15102;SDS011;7652;53.584;9.998;2022-08-19T06:03:42;33.33;;;25.97;;
15102;SDS011;7652;53.584;9.998;2022-08-19T06:06:46;35.43;;;26.13;;
15102;SDS011;7652;53.584;9.998;2022-08-19T06:09:49;37.40;;;26.60;;
15102;SDS011;7652;53.584;9.998;2022-08-19T06:13:01;35.30;;;25.90;;
15102;SDS011;7652;53.584;9.998;2022-08-19T06:16:05;32.67;;;25.43;;
15102;SDS011;7652;53.584;9.998;2022-08-19T06:19:11;30.70;;;25.83;;
15102;SDS011;7652;53.584;9.998;2022-08-19T06:22:15;33.93;;;25.83;;
15102;SDS011;7652;53.584;9.998;2022-08-19T06:25:18;38.23;;;27.70;;
15102;SDS011;7652;53.584;9.998;2022-08-19T06:28:22;36.00;;;25.53;;
15102;SDS011;7652;53.584;9.998;2022-08-19T06:31:26;36.53;;;28.23;;
15102;SDS011;7652;53.584;9.998;2022-08-19T06:34:36;32.57;;;24.90;;
15102;SDS011;7652;53.584;9.998;2022-08-19T06:37:39;37.20;;;27.33;;
15102;SDS011;7652;53.584;9.998;2022-08-19T06:40:44;36.83;;;26.97;;
15102;SDS011;7652;53.584;9.998;2022-08-19T06:43:47;38.77;;;28.23;;
15102;SDS011;7652;53.584;9.998;2022-08-19T06:46:54;33.83;;;25.10;;
15102;SDS011;7652;53.584;9.998;2022-08-19T06:49:59;38.87;;;27.93;;
15102;SDS011;7652;53.584;9.998;2022-08-19T06:53:06;43.47;;;29.73;;
15102;SDS011;7652;53.584;9.998;2022-08-19T06:56:09;38.57;;;28.07;;
15102;SDS011;7652;53.584;9.998;2022-08-19T06:59:12;36.13;;;25.87;;
15102;SDS011;7652;53.584;9.998;2022-08-19T07:02:18;40.33;;;27.03;;
15102;SDS011;7652;53.584;9.998;2022-08-19T07:05:23;35.53;;;24.33;;
15102;SDS011;7652;53.584;9.998;2022-08-19T07:08:27;37.63;;;25.27;;
15102;SDS011;7652;53.584;9.998;2022-08-19T07:11:30;34.33;;;24.37;;
15102;SDS011;7652;53.584;9.998;2022-08-19T07:14:34;34.50;;;26.07;;
15102;SDS011;7652;53.584;9.998;2022-08-19T07:17:39;30.40;;;22.13;;
15102;SDS011;7652;53.584;9.998;2022-08-19T07:20:44;28.07;;;20.80;;
15102;SDS011;7652;53.584;9.998;2022-08-19T07:23:47;21.93;;;17.73;;
15102;SDS011;7652;53.584;9.998;2022-08-19T07:26:51;22.37;;;16.93;;
15102;SDS011;7652;53.584;9.998;2022-08-19T07:29:56;22.77;;;17.97;;
15102;SDS011;7652;53.584;9.998;2022-08-19T07:33:00;23.43;;;16.47;;
15102;SDS011;7652;53.584;9.998;2022-08-19T07:36:06;26.17;;;17.40;;
15102;SDS011;7652;53.584;9.998;2022-08-19T07:39:13;16.97;;;14.27;;
15102;SDS011;7652;53.584;9.998;2022-08-19T07:42:18;16.50;;;13.10;;
15102;SDS011;7652;53.584;9.998;2022-08-19T07:45:22;15.63;;;12.13;;
15102;SDS011;7652;53.584;9.998;2022-08-19T07:48:26;19.40;;;14.20;;
15102;SDS011;7652;53.584;9.998;2022-08-19T07:51:31;14.43;;;11.73;;
15102;SDS011;7652;53.584;9.998;2022-08-19T07:54:37;13.50;;;10.33;;
15102;SDS011;7652;53.584;9.998;2022-08-19T07:57:41;14.10;;;12.30;;
15102;SDS011;7652;53.584;9.998;2022-08-19T08:00:49;11.13;;;9.83;;
15102;SDS011;7652;53.584;9.998;2022-08-19T08:03:54;8.93;;;8.03;;
15102;SDS011;7652;53.584;9.998;2022-08-19T08:07:18;12.23;;;9.70;;
15102;SDS011;7652;53.584;9.998;2022-08-19T08:10:38;11.83;;;8.80;;
15102;SDS011;7652;53.584;9.998;2022-08-19T08:13:42;12.00;;;9.37;;
15102;SDS011;7652;53.584;9.998;2022-08-19T08:16:45;11.30;;;8.23;;
15102;SDS011;7652;53.584;9.998;2022-08-19T08:19:49;9.50;;;8.60;;
15102;SDS011;7652;53.584;9.998;2022-08-19T08:22:54;12.30;;;10.67;;
15102;SDS011;7652;53.584;9.998;2022-08-19T08:26:14;11.13;;;9.23;;
15102;SDS011;7652;53.584;9.998;2022-08-19T08:29:19;9.70;;;8.70;;
15102;SDS011;7652;53.584;9.998;2022-08-19T08:32:26;11.33;;;9.63;;
15102;SDS011;7652;53.584;9.998;2022-08-19T08:35:29;11.93;;;8.77;;
15102;SDS011;7652;53.584;9.998;2022-08-19T08:38:34;9.23;;;8.30;;
15102;SDS011;7652;53.584;9.998;2022-08-19T08:41:44;11.70;;;9.17;;
15102;SDS011;7652;53.584;9.998;2022-08-19T08:44:56;15.97;;;9.63;;
15102;SDS011;7652;53.584;9.998;2022-08-19T08:48:04;13.93;;;12.17;;
15102;SDS011;7652;53.584;9.998;2022-08-19T08:51:33;13.60;;;11.13;;
15102;SDS011;7652;53.584;9.998;2022-08-19T08:54:47;15.37;;;11.53;;
15102;SDS011;7652;53.584;9.998;2022-08-19T08:57:57;19.73;;;13.30;;
15102;SDS011;7652;53.584;9.998;2022-08-19T09:01:03;17.70;;;11.80;;
15102;SDS011;7652;53.584;9.998;2022-08-19T09:04:07;16.07;;;11.83;;
15102;SDS011;7652;53.584;9.998;2022-08-19T09:07:15;18.00;;;12.40;;
15102;SDS011;7652;53.584;9.998;2022-08-19T09:10:39;19.93;;;12.57;;
15102;SDS011;7652;53.584;9.998;2022-08-19T09:13:49;16.90;;;12.33;;
15102;SDS011;7652;53.584;9.998;2022-08-19T09:17:01;17.30;;;13.00;;
15102;SDS011;7652;53.584;9.998;2022-08-19T09:20:13;19.00;;;15.33;;
15102;SDS011;7652;53.584;9.998;2022-08-19T09:23:20;20.47;;;14.43;;
15102;SDS011;7652;53.584;9.998;2022-08-19T09:26:29;20.00;;;14.53;;
15102;SDS011;7652;53.584;9.998;2022-08-19T09:29:52;20.43;;;15.30;;
15102;SDS011;7652;53.584;9.998;2022-08-19T09:32:56;18.13;;;14.30;;
15102;SDS011;7652;53.584;9.998;2022-08-19T09:36:03;22.13;;;14.60;;
15102;SDS011;7652;53.584;9.998;2022-08-19T09:39:09;14.57;;;12.00;;
15102;SDS011;7652;53.584;9.998;2022-08-19T09:42:18;14.77;;;12.17;;
15102;SDS011;7652;53.584;9.998;2022-08-19T09:45:30;10.50;;;9.50;;
15102;SDS011;7652;53.584;9.998;2022-08-19T09:48:34;12.37;;;9.60;;
15102;SDS011;7652;53.584;9.998;2022-08-19T09:51:38;13.43;;;9.17;;
15102;SDS011;7652;53.584;9.998;2022-08-19T09:54:42;11.57;;;9.00;;
15102;SDS011;7652;53.584;9.998;2022-08-19T09:57:54;11.97;;;9.73;;
15102;SDS011;7652;53.584;9.998;2022-08-19T10:00:58;10.27;;;8.80;;
15102;SDS011;7652;53.584;9.998;2022-08-19T10:04:02;11.60;;;9.90;;
15102;SDS011;7652;53.584;9.998;2022-08-19T10:07:20;14.67;;;11.77;;
15102;SDS011;7652;53.584;9.998;2022-08-19T10:10:36;15.30;;;13.00;;
15102;SDS011;7652;53.584;9.998;2022-08-19T10:13:45;20.00;;;13.70;;
15102;SDS011;7652;53.584;9.998;2022-08-19T10:16:48;15.13;;;10.57;;
15102;SDS011;7652;53.584;9.998;2022-08-19T10:19:53;14.70;;;12.67;;
15102;SDS011;7652;53.584;9.998;2022-08-19T10:22:56;14.43;;;12.13;;
15102;SDS011;7652;53.584;9.998;2022-08-19T10:26:00;13.50;;;10.97;;
15102;SDS011;7652;53.584;9.998;2022-08-19T10:29:05;16.27;;;11.93;;
15102;SDS011;7652;53.584;9.998;2022-08-19T10:32:09;13.30;;;11.73;;
15102;SDS011;7652;53.584;9.998;2022-08-19T10:35:14;13.43;;;11.07;;
15102;SDS011;7652;53.584;9.998;2022-08-19T10:38:23;16.70;;;14.87;;
15102;SDS011;7652;53.584;9.998;2022-08-19T10:41:33;17.27;;;12.77;;
15102;SDS011;7652;53.584;9.998;2022-08-19T10:44:40;18.50;;;14.67;;
15102;SDS011;7652;53.584;9.998;2022-08-19T10:47:43;15.77;;;14.17;;
15102;SDS011;7652;53.584;9.998;2022-08-19T10:50:48;19.17;;;15.20;;
15102;SDS011;7652;53.584;9.998;2022-08-19T10:54:08;16.30;;;14.10;;
15102;SDS011;7652;53.584;9.998;2022-08-19T10:57:13;14.63;;;12.73;;
15102;SDS011;7652;53.584;9.998;2022-08-19T11:00:17;20.47;;;14.63;;
15102;SDS011;7652;53.584;9.998;2022-08-19T11:03:20;15.37;;;13.87;;
15102;SDS011;7652;53.584;9.998;2022-08-19T11:06:23;15.00;;;13.50;;
15102;SDS011;7652;53.584;9.998;2022-08-19T11:09:31;17.73;;;14.47;;
15102;SDS011;7652;53.584;9.998;2022-08-19T11:12:39;17.87;;;14.53;;
15102;SDS011;7652;53.584;9.998;2022-08-19T11:15:44;18.10;;;14.20;;
15102;SDS011;7652;53.584;9.998;2022-08-19T11:18:49;18.67;;;14.33;;
15102;SDS011;7652;53.584;9.998;2022-08-19T11:21:59;18.47;;;13.13;;
15102;SDS011;7652;53.584;9.998;2022-08-19T11:25:04;14.47;;;12.37;;
15102;SDS011;7652;53.584;9.998;2022-08-19T11:28:08;14.67;;;11.83;;
15102;SDS011;7652;53.584;9.998;2022-08-19T11:31:12;17.00;;;14.27;;
15102;SDS011;7652;53.584;9.998;2022-08-19T11:34:19;17.37;;;14.07;;
15102;SDS011;7652;53.584;9.998;2022-08-19T11:37:24;15.83;;;12.10;;
15102;SDS011;7652;53.584;9.998;2022-08-19T11:40:28;12.97;;;11.07;;
15102;SDS011;7652;53.584;9.998;2022-08-19T11:43:31;12.60;;;10.87;;
15102;SDS011;7652;53.584;9.998;2022-08-19T11:46:39;12.23;;;10.37;;
15102;SDS011;7652;53.584;9.998;2022-08-19T11:49:46;12.27;;;10.80;;
15102;SDS011;7652;53.584;9.998;2022-08-19T11:52:50;12.87;;;9.93;;
15102;SDS011;7652;53.584;9.998;2022-08-19T11:55:56;11.70;;;10.53;;
15102;SDS011;7652;53.584;9.998;2022-08-19T11:59:00;11.13;;;9.97;;
15102;SDS011;7652;53.584;9.998;2022-08-19T12:02:05;11.87;;;10.43;;
15102;SDS011;7652;53.584;9.998;2022-08-19T12:05:08;11.73;;;9.90;;
15102;SDS011;7652;53.584;9.998;2022-08-19T12:08:13;12.00;;;9.90;;
15102;SDS011;7652;53.584;9.998;2022-08-19T12:11:17;13.50;;;11.10;;
15102;SDS011;7652;53.584;9.998;2022-08-19T12:14:20;11.37;;;10.27;;
15102;SDS011;7652;53.584;9.998;2022-08-19T12:17:26;12.33;;;10.67;;
15102;SDS011;7652;53.584;9.998;2022-08-19T12:20:30;11.37;;;9.90;;
15102;SDS011;7652;53.584;9.998;2022-08-19T12:23:35;9.80;;;8.80;;
15102;SDS011;7652;53.584;9.998;2022-08-19T12:26:39;11.53;;;10.43;;
15102;SDS011;7652;53.584;9.998;2022-08-19T12:29:54;13.90;;;10.37;;
15102;SDS011;7652;53.584;9.998;2022-08-19T12:32:58;10.67;;;9.60;;
15102;SDS011;7652;53.584;9.998;2022-08-19T12:36:02;11.10;;;9.90;;
15102;SDS011;7652;53.584;9.998;2022-08-19T12:39:06;10.13;;;8.83;;
15102;SDS011;7652;53.584;9.998;2022-08-19T12:42:13;9.90;;;8.87;;
15102;SDS011;7652;53.584;9.998;2022-08-19T12:45:18;9.70;;;8.77;;
15102;SDS011;7652;53.584;9.998;2022-08-19T12:48:22;9.10;;;8.20;;
15102;SDS011;7652;53.584;9.998;2022-08-19T12:51:35;10.63;;;9.47;;
15102;SDS011;7652;53.584;9.998;2022-08-19T12:54:38;8.53;;;7.70;;
15102;SDS011;7652;53.584;9.998;2022-08-19T12:57:41;11.50;;;8.60;;
15102;SDS011;7652;53.584;9.998;2022-08-19T13:00:44;8.37;;;7.67;;
15102;SDS011;7652;53.584;9.998;2022-08-19T13:03:48;9.30;;;8.30;;
15102;SDS011;7652;53.584;9.998;2022-08-19T13:06:53;8.60;;;7.80;;
15102;SDS011;7652;53.584;9.998;2022-08-19T13:09:56;8.17;;;7.47;;
15102;SDS011;7652;53.584;9.998;2022-08-19T13:12:59;8.40;;;7.60;;
15102;SDS011;7652;53.584;9.998;2022-08-19T13:16:03;8.93;;;8.13;;
15102;SDS011;7652;53.584;9.998;2022-08-19T13:19:07;9.53;;;8.53;;
15102;SDS011;7652;53.584;9.998;2022-08-19T13:22:12;9.77;;;8.80;;
15102;SDS011;7652;53.584;9.998;2022-08-19T13:25:15;8.73;;;7.93;;
15102;SDS011;7652;53.584;9.998;2022-08-19T13:28:20;8.23;;;7.43;;
15102;SDS011;7652;53.584;9.998;2022-08-19T13:31:30;8.87;;;7.97;;
15102;SDS011;7652;53.584;9.998;2022-08-19T13:34:54;8.23;;;7.53;;
15102;SDS011;7652;53.584;9.998;2022-08-19T13:37:57;9.23;;;8.10;;
15102;SDS011;7652;53.584;9.998;2022-08-19T13:41:03;9.43;;;8.47;;
15102;SDS011;7652;53.584;9.998;2022-08-19T13:44:13;9.00;;;8.20;;
15102;SDS011;7652;53.584;9.998;2022-08-19T13:47:19;8.53;;;7.80;;
15102;SDS011;7652;53.584;9.998;2022-08-19T13:50:24;7.60;;;6.90;;
15102;SDS011;7652;53.584;9.998;2022-08-19T13:53:29;8.93;;;8.13;;
15102;SDS011;7652;53.584;9.998;2022-08-19T13:56:32;8.73;;;7.93;;
15102;SDS011;7652;53.584;9.998;2022-08-19T13:59:36;8.97;;;7.70;;
15102;SDS011;7652;53.584;9.998;2022-08-19T14:02:39;8.33;;;7.63;;
15102;SDS011;7652;53.584;9.998;2022-08-19T14:05:43;10.47;;;8.80;;
15102;SDS011;7652;53.584;9.998;2022-08-19T14:08:48;9.70;;;8.80;;
15102;SDS011;7652;53.584;9.998;2022-08-19T14:11:51;10.80;;;9.70;;
15102;SDS011;7652;53.584;9.998;2022-08-19T14:14:54;10.27;;;8.83;;
15102;SDS011;7652;53.584;9.998;2022-08-19T14:17:57;9.03;;;8.33;;
15102;SDS011;7652;53.584;9.998;2022-08-19T14:21:02;10.37;;;9.40;;
15102;SDS011;7652;53.584;9.998;2022-08-19T14:24:06;8.80;;;8.10;;
15102;SDS011;7652;53.584;9.998;2022-08-19T14:27:09;10.67;;;9.77;;
15102;SDS011;7652;53.584;9.998;2022-08-19T14:30:14;10.20;;;9.30;;
15102;SDS011;7652;53.584;9.998;2022-08-19T14:33:19;10.53;;;9.53;;
15102;SDS011;7652;53.584;9.998;2022-08-19T14:36:31;12.13;;;11.10;;
15102;SDS011;7652;53.584;9.998;2022-08-19T14:39:39;10.77;;;9.77;;
15102;SDS011;7652;53.584;9.998;2022-08-19T14:42:43;10.87;;;9.93;;
15102;SDS011;7652;53.584;9.998;2022-08-19T14:45:46;10.07;;;9.07;;
15102;SDS011;7652;53.584;9.998;2022-08-19T14:48:50;10.00;;;9.10;;
15102;SDS011;7652;53.584;9.998;2022-08-19T14:51:55;10.10;;;9.20;;
15102;SDS011;7652;53.584;9.998;2022-08-19T14:54:58;11.60;;;10.33;;
15102;SDS011;7652;53.584;9.998;2022-08-19T14:58:02;10.83;;;9.93;;
15102;SDS011;7652;53.584;9.998;2022-08-19T15:01:09;11.03;;;9.93;;
15102;SDS011;7652;53.584;9.998;2022-08-19T15:04:13;11.47;;;10.13;;
15102;SDS011;7652;53.584;9.998;2022-08-19T15:07:17;10.47;;;9.57;;
15102;SDS011;7652;53.584;9.998;2022-08-19T15:10:20;10.47;;;9.53;;
15102;SDS011;7652;53.584;9.998;2022-08-19T15:13:26;10.57;;;9.47;;
15102;SDS011;7652;53.584;9.998;2022-08-19T15:16:31;10.17;;;9.17;;
15102;SDS011;7652;53.584;9.998;2022-08-19T15:19:35;10.37;;;9.33;;
15102;SDS011;7652;53.584;9.998;2022-08-19T15:22:39;8.53;;;7.83;;
15102;SDS011;7652;53.584;9.998;2022-08-19T15:25:43;9.17;;;8.40;;
15102;SDS011;7652;53.584;9.998;2022-08-19T15:28:47;8.87;;;8.17;;
15102;SDS011;7652;53.584;9.998;2022-08-19T15:31:50;8.63;;;7.93;;
15102;SDS011;7652;53.584;9.998;2022-08-19T15:34:57;8.07;;;7.17;;
15102;SDS011;7652;53.584;9.998;2022-08-19T15:38:05;9.57;;;8.77;;
15102;SDS011;7652;53.584;9.998;2022-08-19T15:41:14;8.87;;;8.07;;
15102;SDS011;7652;53.584;9.998;2022-08-19T15:44:25;8.03;;;7.23;;
15102;SDS011;7652;53.584;9.998;2022-08-19T15:47:28;8.27;;;7.57;;
15102;SDS011;7652;53.584;9.998;2022-08-19T15:50:36;8.17;;;7.53;;
15102;SDS011;7652;53.584;9.998;2022-08-19T15:53:41;7.70;;;7.10;;
15102;SDS011;7652;53.584;9.998;2022-08-19T15:56:44;7.80;;;7.10;;
15102;SDS011;7652;53.584;9.998;2022-08-19T16:00:08;7.80;;;7.20;;
15102;SDS011;7652;53.584;9.998;2022-08-19T16:03:29;8.03;;;7.33;;
15102;SDS011;7652;53.584;9.998;2022-08-19T16:06:50;7.17;;;6.57;;
15102;SDS011;7652;53.584;9.998;2022-08-19T16:09:56;8.33;;;7.47;;
15102;SDS011;7652;53.584;9.998;2022-08-19T16:13:19;6.77;;;6.17;;
15102;SDS011;7652;53.584;9.998;2022-08-19T16:16:23;7.60;;;6.97;;
15102;SDS011;7652;53.584;9.998;2022-08-19T16:19:34;7.23;;;6.57;;
15102;SDS011;7652;53.584;9.998;2022-08-19T16:22:38;6.93;;;6.43;;
15102;SDS011;7652;53.584;9.998;2022-08-19T16:25:43;7.00;;;6.30;;
15102;SDS011;7652;53.584;9.998;2022-08-19T16:28:46;6.40;;;5.80;;
15102;SDS011;7652;53.584;9.998;2022-08-19T16:31:49;6.60;;;6.10;;
15102;SDS011;7652;53.584;9.998;2022-08-19T16:34:54;6.83;;;6.13;;
15102;SDS011;7652;53.584;9.998;2022-08-19T16:37:57;7.00;;;6.50;;
15102;SDS011;7652;53.584;9.998;2022-08-19T16:41:02;7.73;;;7.13;;
15102;SDS011;7652;53.584;9.998;2022-08-19T16:44:06;6.50;;;6.00;;
15102;SDS011;7652;53.584;9.998;2022-08-19T16:47:11;7.30;;;6.60;;
15102;SDS011;7652;53.584;9.998;2022-08-19T16:50:14;7.07;;;6.37;;
15102;SDS011;7652;53.584;9.998;2022-08-19T16:53:34;6.10;;;5.60;;
15102;SDS011;7652;53.584;9.998;2022-08-19T16:56:39;6.03;;;5.47;;
15102;SDS011;7652;53.584;9.998;2022-08-19T16:59:42;6.30;;;5.30;;
15102;SDS011;7652;53.584;9.998;2022-08-19T17:02:49;4.93;;;4.53;;
15102;SDS011;7652;53.584;9.998;2022-08-19T17:05:53;6.30;;;5.80;;
15102;SDS011;7652;53.584;9.998;2022-08-19T17:08:59;6.50;;;5.90;;
15102;SDS011;7652;53.584;9.998;2022-08-19T17:12:04;6.87;;;6.37;;
15102;SDS011;7652;53.584;9.998;2022-08-19T17:15:08;6.70;;;6.10;;
15102;SDS011;7652;53.584;9.998;2022-08-19T17:18:11;6.53;;;5.90;;
15102;SDS011;7652;53.584;9.998;2022-08-19T17:21:15;6.40;;;5.77;;
15102;SDS011;7652;53.584;9.998;2022-08-19T17:24:18;7.40;;;6.80;;
15102;SDS011;7652;53.584;9.998;2022-08-19T17:27:23;6.47;;;5.97;;
15102;SDS011;7652;53.584;9.998;2022-08-19T17:30:26;7.07;;;6.47;;
15102;SDS011;7652;53.584;9.998;2022-08-19T17:33:29;7.77;;;5.67;;
15102;SDS011;7652;53.584;9.998;2022-08-19T17:36:32;6.10;;;5.63;;
15102;SDS011;7652;53.584;9.998;2022-08-19T17:39:35;8.33;;;7.30;;
15102;SDS011;7652;53.584;9.998;2022-08-19T17:42:41;7.40;;;6.80;;
15102;SDS011;7652;53.584;9.998;2022-08-19T17:45:45;7.23;;;6.47;;
15102;SDS011;7652;53.584;9.998;2022-08-19T17:48:49;7.33;;;6.73;;
15102;SDS011;7652;53.584;9.998;2022-08-19T17:51:58;6.90;;;6.30;;
15102;SDS011;7652;53.584;9.998;2022-08-19T17:55:01;7.67;;;6.67;;
15102;SDS011;7652;53.584;9.998;2022-08-19T17:58:05;6.90;;;6.30;;
15102;SDS011;7652;53.584;9.998;2022-08-19T18:01:12;6.77;;;6.17;;
15102;SDS011;7652;53.584;9.998;2022-08-19T18:04:17;6.77;;;6.07;;
15102;SDS011;7652;53.584;9.998;2022-08-19T18:07:20;7.60;;;7.00;;
15102;SDS011;7652;53.584;9.998;2022-08-19T18:10:24;7.63;;;6.87;;
15102;SDS011;7652;53.584;9.998;2022-08-19T18:13:37;6.23;;;5.63;;
15102;SDS011;7652;53.584;9.998;2022-08-19T18:16:41;7.50;;;6.90;;
15102;SDS011;7652;53.584;9.998;2022-08-19T18:19:45;7.20;;;6.60;;
15102;SDS011;7652;53.584;9.998;2022-08-19T18:22:49;8.00;;;7.20;;
15102;SDS011;7652;53.584;9.998;2022-08-19T18:25:52;8.17;;;7.47;;
15102;SDS011;7652;53.584;9.998;2022-08-19T18:28:56;8.23;;;7.50;;
15102;SDS011;7652;53.584;9.998;2022-08-19T18:31:59;7.53;;;6.93;;
15102;SDS011;7652;53.584;9.998;2022-08-19T18:35:04;8.00;;;7.20;;